createdAt,value
2022-09-12T00:01:07.081Z,999.90
2022-09-12T00:03:37.920Z,999.90
2022-09-12T00:06:18.116Z,999.90
2022-09-12T00:08:50.604Z,999.90
2022-09-12T00:11:20.742Z,999.90
2022-09-12T00:13:52.213Z,999.90
2022-09-12T00:16:24.515Z,999.90
2022-09-12T00:18:55.097Z,999.90
2022-09-12T00:21:25.652Z,999.90
2022-09-12T00:23:56.078Z,999.90
2022-09-12T00:26:26.186Z,999.90
2022-09-12T00:28:57.720Z,999.90
2022-09-12T00:31:28.189Z,999.90
2022-09-12T00:34:00.746Z,999.90
2022-09-12T00:36:31.436Z,999.90
2022-09-12T00:39:01.783Z,999.90
2022-09-12T00:41:35.928Z,999.90
2022-09-12T00:44:39.423Z,999.90
2022-09-12T00:47:18.604Z,999.90
2022-09-12T00:49:55.823Z,999.90
2022-09-12T00:52:29.734Z,999.90
2022-09-12T00:55:03.930Z,999.90
2022-09-12T00:57:38.763Z,999.90
2022-09-12T01:00:14.416Z,999.90
2022-09-12T01:02:50.074Z,999.90
2022-09-12T01:05:21.914Z,999.90
2022-09-12T01:07:53.363Z,999.90
2022-09-12T01:10:25.365Z,999.90
2022-09-12T01:12:55.322Z,999.90
2022-09-12T01:15:25.503Z,999.90
2022-09-12T01:18:10.312Z,999.90
2022-09-12T01:20:51.255Z,999.90
2022-09-12T01:23:47.643Z,734.23
2022-09-12T01:26:41.886Z,760.23
2022-09-12T01:29:45.587Z,826.60
2022-09-12T01:32:24.967Z,811.83
2022-09-12T01:35:02.800Z,357.30
2022-09-12T01:37:38.747Z,409.27
2022-09-12T01:40:15.893Z,510.73
2022-09-12T01:42:56.741Z,555.97
2022-09-12T01:45:31.616Z,620.63
2022-09-12T01:48:13.110Z,636.07
2022-09-12T01:50:48.491Z,674.17
2022-09-12T01:53:23.399Z,580.87
2022-09-12T01:55:59.216Z,615.97
2022-09-12T01:58:36.356Z,426.97
2022-09-12T02:01:11.195Z,434.90
2022-09-12T02:03:47.766Z,407.80
2022-09-12T02:06:21.747Z,803.63
2022-09-12T02:08:55.626Z,999.90
2022-09-12T02:11:25.938Z,999.90
2022-09-12T02:14:00.479Z,999.90
2022-09-12T02:16:35.470Z,999.90
2022-09-12T02:19:12.469Z,999.90
2022-09-12T02:21:47.640Z,999.90
2022-09-12T02:24:19.103Z,999.90
2022-09-12T02:26:53.363Z,999.90
2022-09-12T02:29:23.552Z,999.90
2022-09-12T02:31:58.750Z,999.90
2022-09-12T02:34:42.852Z,999.90
2022-09-12T02:37:23.577Z,999.90
2022-09-12T02:39:55.340Z,999.90
2022-09-12T02:42:26.024Z,999.90
2022-09-12T02:44:58.147Z,999.90
2022-09-12T02:47:32.422Z,999.90
2022-09-12T02:50:05.348Z,999.90
2022-09-12T02:52:36.568Z,999.90
2022-09-12T02:55:08.070Z,999.90
2022-09-12T02:57:38.717Z,999.90
2022-09-12T03:00:10.212Z,999.90
2022-09-12T03:02:55.628Z,999.90
2022-09-12T03:05:32.520Z,999.90
2022-09-12T03:08:36.351Z,999.90
2022-09-12T03:11:19.478Z,999.90
2022-09-12T03:13:58.876Z,999.90
2022-09-12T03:16:38.282Z,999.90
2022-09-12T03:19:19.354Z,999.90
2022-09-12T03:21:57.545Z,999.90
2022-09-12T03:24:33.486Z,999.90
2022-09-12T03:27:09.939Z,999.90
2022-09-12T03:29:41.879Z,999.90
2022-09-12T03:32:11.934Z,999.90
2022-09-12T03:34:42.135Z,999.90
2022-09-12T03:37:14.268Z,999.90
2022-09-12T03:39:44.330Z,999.90
2022-09-12T03:42:14.494Z,999.90
2022-09-12T03:44:44.469Z,999.90
2022-09-12T03:47:14.515Z,999.90
2022-09-12T03:49:44.578Z,999.90
2022-09-12T03:52:15.987Z,999.90
2022-09-12T03:54:46.072Z,730.07
2022-09-12T03:57:16.519Z,750.93
2022-09-12T03:59:46.615Z,817.50
2022-09-12T04:02:16.875Z,856.67
2022-09-12T04:04:48.862Z,272.90
2022-09-12T04:07:20.268Z,829.20
2022-09-12T04:09:50.465Z,804.00
2022-09-12T04:12:20.995Z,999.90
2022-09-12T04:14:51.067Z,999.90
2022-09-12T04:17:21.168Z,999.90
2022-09-12T04:19:51.229Z,999.90
2022-09-12T04:22:22.603Z,999.90
2022-09-12T04:24:53.049Z,999.90
2022-09-12T04:27:23.187Z,999.90
2022-09-12T04:29:54.783Z,999.90
2022-09-12T04:32:24.934Z,999.90
2022-09-12T04:34:55.049Z,999.90
2022-09-12T04:37:26.449Z,999.90
2022-09-12T04:39:57.892Z,999.90
2022-09-12T04:42:28.101Z,999.90
2022-09-12T04:44:58.215Z,999.90
2022-09-12T04:47:28.288Z,999.90
2022-09-12T04:49:58.364Z,999.90
2022-09-12T04:52:30.015Z,999.90
2022-09-12T04:55:00.213Z,999.90
2022-09-12T04:57:30.220Z,999.90
2022-09-12T05:00:03.981Z,999.90
2022-09-12T05:02:36.644Z,999.90
2022-09-12T05:05:07.754Z,999.90
2022-09-12T05:07:39.232Z,999.90
2022-09-12T05:10:10.949Z,999.90
2022-09-12T05:12:41.050Z,999.90
2022-09-12T05:15:11.733Z,999.90
2022-09-12T05:17:41.780Z,999.90
2022-09-12T05:20:12.767Z,999.90
2022-09-12T05:22:44.207Z,999.90
2022-09-12T05:25:14.136Z,999.90
2022-09-12T05:27:47.445Z,999.90
2022-09-12T05:30:20.523Z,999.90
2022-09-12T05:32:50.754Z,999.90
2022-09-12T05:35:20.944Z,999.90
2022-09-12T05:37:52.504Z,999.90
2022-09-12T05:40:23.024Z,999.90
2022-09-12T05:42:53.060Z,999.90
2022-09-12T05:45:23.279Z,999.90
2022-09-12T05:47:54.097Z,999.90
2022-09-12T05:50:25.508Z,999.90
2022-09-12T05:52:58.149Z,999.90
2022-09-12T05:55:28.219Z,999.90
2022-09-12T05:57:58.279Z,999.90
2022-09-12T06:00:32.854Z,999.90
2022-09-12T06:03:03.491Z,999.90
2022-09-12T06:05:34.049Z,999.90
2022-09-12T06:08:05.712Z,999.90
2022-09-12T06:10:36.567Z,999.90
2022-09-12T06:13:06.630Z,999.90
2022-09-12T06:15:37.647Z,999.90
2022-09-12T06:18:07.712Z,999.90
2022-09-12T06:20:37.888Z,999.90
2022-09-12T06:23:09.390Z,794.20
2022-09-12T06:25:39.727Z,868.03
2022-09-12T06:28:09.744Z,498.60
2022-09-12T06:30:40.018Z,720.67
2022-09-12T06:33:10.228Z,765.33
2022-09-12T06:35:41.839Z,744.07
2022-09-12T06:38:13.224Z,548.40
2022-09-12T06:40:44.951Z,321.53
2022-09-12T06:43:15.009Z,817.40
2022-09-12T06:45:49.820Z,742.10
2022-09-12T06:48:20.063Z,999.90
2022-09-12T06:50:58.388Z,999.90
2022-09-12T06:53:33.285Z,999.90
2022-09-12T06:56:05.855Z,999.90
2022-09-12T06:58:36.920Z,999.90
2022-09-12T07:01:09.474Z,999.90
2022-09-12T07:03:40.818Z,999.90
2022-09-12T07:06:13.066Z,999.90
2022-09-12T07:08:44.682Z,999.90
2022-09-12T07:11:16.433Z,999.90
2022-09-12T07:13:48.748Z,999.90
2022-09-12T07:16:20.119Z,999.90
2022-09-12T07:18:52.121Z,999.90
2022-09-12T07:21:22.196Z,999.90
2022-09-12T07:23:55.205Z,999.90
2022-09-12T07:26:26.885Z,999.90
2022-09-12T07:29:13.241Z,999.90
2022-09-12T07:31:49.579Z,999.90
2022-09-12T07:34:19.720Z,999.90
2022-09-12T07:36:50.155Z,999.90
2022-09-12T07:39:27.067Z,999.90
2022-09-12T07:41:57.866Z,999.90
2022-09-12T07:44:27.938Z,999.90
2022-09-12T07:46:57.974Z,999.90
2022-09-12T07:49:28.004Z,999.90
2022-09-12T07:51:56.146Z,999.90
2022-09-12T07:54:24.870Z,999.90
2022-09-12T07:56:55.340Z,999.90
2022-09-12T07:59:48.432Z,999.90
2022-09-12T08:02:17.423Z,999.90
2022-09-12T08:04:47.663Z,999.90
2022-09-12T08:07:18.260Z,999.90
2022-09-12T08:09:47.900Z,999.90
2022-09-12T08:12:17.801Z,999.90
2022-09-12T08:14:46.153Z,999.90
2022-09-12T08:17:14.426Z,999.90
2022-09-12T08:19:42.697Z,999.90
2022-09-12T08:22:11.188Z,999.90
2022-09-12T08:24:40.470Z,999.90
2022-09-12T08:27:09.421Z,999.90
2022-09-12T08:29:38.919Z,999.90
2022-09-12T08:32:07.454Z,999.90
2022-09-12T08:34:35.799Z,999.90
2022-09-12T08:37:04.072Z,999.90
2022-09-12T08:39:33.676Z,999.90
2022-09-12T08:42:03.928Z,999.90
2022-09-12T08:45:08.927Z,999.90
2022-09-12T08:47:39.706Z,999.90
2022-09-12T08:50:17.668Z,999.90
2022-09-12T08:52:55.933Z,999.90
2022-09-12T08:55:33.677Z,999.90
2022-09-12T08:58:03.475Z,999.90
2022-09-12T09:00:41.659Z,999.90
2022-09-12T09:03:44.143Z,999.90
2022-09-12T09:06:24.590Z,999.90
2022-09-12T09:09:04.985Z,999.90
2022-09-12T09:11:50.859Z,999.90
2022-09-12T09:15:02.775Z,999.90
2022-09-12T09:17:39.471Z,999.90
2022-09-12T09:20:18.693Z,999.90
2022-09-12T09:22:50.512Z,999.90
2022-09-12T09:25:23.180Z,999.90
2022-09-12T09:27:59.268Z,999.90
2022-09-12T09:30:28.608Z,999.90
2022-09-12T09:33:01.302Z,999.90
2022-09-12T09:35:40.173Z,999.90
2022-09-12T09:38:23.347Z,999.90
2022-09-12T09:41:02.447Z,999.90
2022-09-12T09:43:30.503Z,999.90
2022-09-12T09:46:00.445Z,999.90
2022-09-12T09:48:32.514Z,999.90
2022-09-12T09:51:02.989Z,999.90
2022-09-12T09:53:38.452Z,999.90
2022-09-12T09:56:12.740Z,999.90
2022-09-12T09:58:41.417Z,999.90
2022-09-12T10:01:16.951Z,999.90
2022-09-12T10:03:51.998Z,999.90
2022-09-12T10:06:26.851Z,999.90
2022-09-12T10:09:07.551Z,999.90
2022-09-12T10:11:36.524Z,999.90
2022-09-12T10:14:04.871Z,999.90
2022-09-12T10:16:34.583Z,999.90
2022-09-12T10:19:05.196Z,999.90
2022-09-12T10:21:35.801Z,999.90
2022-09-12T10:24:14.077Z,999.90
2022-09-12T10:26:44.074Z,999.90
2022-09-12T10:29:16.605Z,999.90
2022-09-12T10:31:51.084Z,999.90
2022-09-12T10:34:30.481Z,999.90
2022-09-12T10:37:05.387Z,999.90
2022-09-12T10:39:36.036Z,999.90
2022-09-12T10:42:05.520Z,999.90
2022-09-12T10:44:35.752Z,999.90
2022-09-12T10:47:22.888Z,999.90
2022-09-12T10:49:52.281Z,999.90
2022-09-12T10:52:24.341Z,999.90
2022-09-12T10:54:53.147Z,999.90
2022-09-12T10:57:45.816Z,999.90
2022-09-12T11:00:18.047Z,999.90
2022-09-12T11:02:53.306Z,999.90
2022-09-12T11:05:45.027Z,999.90
2022-09-12T11:08:31.101Z,999.90
2022-09-12T11:11:05.753Z,999.90
2022-09-12T11:14:01.017Z,999.90
2022-09-12T11:16:42.669Z,999.90
2022-09-12T11:19:28.721Z,999.90
2022-09-12T11:22:21.512Z,999.90
2022-09-12T11:25:29.830Z,999.90
2022-09-12T11:28:21.925Z,999.90
2022-09-12T11:31:07.863Z,999.90
2022-09-12T11:33:43.350Z,999.90
2022-09-12T11:36:25.338Z,999.90
2022-09-12T11:39:03.086Z,999.90
2022-09-12T11:41:33.820Z,999.90
2022-09-12T11:44:11.441Z,999.90
2022-09-12T11:46:40.544Z,999.90
2022-09-12T11:49:20.059Z,999.90
2022-09-12T11:51:54.897Z,999.90
2022-09-12T11:54:29.955Z,999.90
2022-09-12T11:57:07.828Z,999.90
2022-09-12T11:59:44.154Z,999.90
2022-09-12T12:02:16.005Z,999.90
2022-09-12T12:05:00.311Z,999.90
2022-09-12T12:07:36.382Z,999.90
2022-09-12T12:10:06.529Z,999.90
2022-09-12T12:12:34.718Z,999.90
2022-09-12T12:15:03.428Z,999.90
2022-09-12T12:17:32.068Z,999.90
2022-09-12T12:20:07.421Z,999.90
2022-09-12T12:22:37.363Z,999.90
2022-09-12T12:25:29.008Z,999.90
2022-09-12T12:28:01.702Z,999.90
2022-09-12T12:31:04.395Z,999.90
2022-09-12T12:34:03.476Z,999.90
2022-09-12T12:36:44.992Z,999.90
2022-09-12T12:40:05.808Z,999.90
2022-09-12T12:43:08.886Z,999.90
2022-09-12T12:45:49.970Z,999.90
2022-09-12T12:48:20.377Z,999.90
2022-09-12T12:50:48.730Z,999.90
2022-09-12T12:53:21.055Z,999.90
2022-09-12T12:55:52.104Z,999.90
2022-09-12T12:58:30.552Z,999.90
2022-09-12T13:01:12.419Z,999.90
2022-09-12T13:03:45.300Z,999.90
2022-09-12T13:06:33.372Z,999.90
2022-09-12T13:09:05.404Z,999.90
2022-09-12T13:11:38.954Z,999.90
2022-09-12T13:14:29.137Z,999.90
2022-09-12T13:17:01.015Z,999.90
2022-09-12T13:19:31.912Z,999.90
2022-09-12T13:22:02.693Z,999.90
2022-09-12T13:24:31.013Z,999.90
2022-09-12T13:26:59.055Z,999.90
2022-09-12T13:29:29.276Z,999.90
2022-09-12T13:31:59.531Z,999.90
2022-09-12T13:34:31.701Z,999.90
2022-09-12T13:37:33.125Z,999.90
2022-09-12T13:40:17.159Z,999.90
2022-09-12T13:42:49.497Z,999.90
2022-09-12T13:45:22.010Z,999.90
2022-09-12T13:47:56.586Z,999.90
2022-09-12T13:50:29.071Z,999.90
2022-09-12T13:52:59.374Z,999.90
2022-09-12T13:55:32.552Z,999.90
2022-09-12T13:58:03.168Z,999.90
2022-09-12T14:00:34.894Z,999.90
2022-09-12T14:03:31.839Z,999.90
2022-09-12T14:06:01.396Z,999.90
2022-09-12T14:08:30.224Z,999.90
2022-09-12T14:10:58.361Z,999.90
2022-09-12T14:13:28.059Z,999.90
2022-09-12T14:15:59.808Z,999.90
2022-09-12T14:18:31.174Z,999.90
2022-09-12T14:21:10.323Z,999.90
2022-09-12T14:23:42.511Z,999.90
2022-09-12T14:26:12.530Z,999.90
2022-09-12T14:28:42.852Z,999.90
2022-09-12T14:31:25.434Z,999.90
2022-09-12T14:33:54.988Z,999.90
2022-09-12T14:36:28.319Z,999.90
2022-09-12T14:38:59.652Z,999.90
2022-09-12T14:41:30.937Z,999.90
2022-09-12T14:44:01.659Z,999.90
2022-09-12T14:46:35.830Z,999.90
2022-09-12T14:49:10.345Z,999.90
2022-09-12T14:51:40.833Z,999.90
2022-09-12T14:54:37.233Z,999.90
2022-09-12T14:57:07.355Z,999.90
2022-09-12T14:59:40.365Z,999.90
2022-09-12T15:02:27.190Z,999.90
2022-09-12T15:05:15.347Z,999.90
2022-09-12T15:07:47.548Z,999.90
2022-09-12T15:10:22.051Z,999.90
2022-09-12T15:12:50.148Z,999.90
2022-09-12T15:15:19.996Z,999.90
2022-09-12T15:17:49.694Z,999.90
2022-09-12T15:20:17.996Z,999.90
2022-09-12T15:22:46.147Z,999.90
2022-09-12T15:25:14.633Z,999.90
2022-09-12T15:27:43.106Z,999.90
2022-09-12T15:30:13.255Z,999.90
2022-09-12T15:32:44.264Z,999.90
2022-09-12T15:35:17.156Z,999.90
2022-09-12T15:37:45.712Z,999.90
2022-09-12T15:40:13.852Z,999.90
2022-09-12T15:42:42.514Z,999.90
2022-09-12T15:45:18.603Z,999.90
2022-09-12T15:47:47.132Z,999.90
2022-09-12T15:50:17.050Z,999.90
2022-09-12T15:52:45.381Z,999.90
2022-09-12T15:55:18.334Z,999.90
2022-09-12T15:57:46.784Z,999.90
2022-09-12T16:00:15.925Z,999.90
2022-09-12T16:02:44.156Z,999.90
2022-09-12T16:05:16.248Z,999.90
2022-09-12T16:07:44.886Z,999.90
2022-09-12T16:10:17.167Z,999.90
2022-09-12T16:12:46.103Z,999.90
2022-09-12T16:15:16.065Z,999.90
2022-09-12T16:17:44.225Z,999.90
2022-09-12T16:20:13.030Z,999.90
2022-09-12T16:22:43.070Z,999.90
2022-09-12T16:25:11.460Z,999.90
2022-09-12T16:27:39.838Z,999.90
2022-09-12T16:30:09.564Z,999.90
2022-09-12T16:32:38.142Z,999.90
2022-09-12T16:35:07.485Z,999.90
2022-09-12T16:37:35.737Z,999.90
2022-09-12T16:40:07.017Z,999.90
2022-09-12T16:42:35.759Z,999.90
2022-09-12T16:45:04.019Z,999.90
2022-09-12T16:47:33.362Z,999.90
2022-09-12T16:50:01.536Z,999.90
2022-09-12T16:52:30.228Z,999.90
2022-09-12T16:54:58.392Z,999.90
2022-09-12T16:57:27.950Z,999.90
2022-09-12T16:59:55.929Z,999.90
2022-09-12T17:02:23.992Z,999.90
2022-09-12T17:04:52.614Z,999.90
2022-09-12T17:07:21.055Z,999.90
2022-09-12T17:09:49.399Z,999.90
2022-09-12T17:12:17.432Z,999.90
2022-09-12T17:14:46.960Z,999.90
2022-09-12T17:17:15.042Z,999.90
2022-09-12T17:19:43.422Z,999.90
2022-09-12T17:22:11.379Z,999.90
2022-09-12T17:24:40.440Z,999.90
2022-09-12T17:27:08.594Z,999.90
2022-09-12T17:29:38.506Z,999.90
2022-09-12T17:32:07.980Z,999.90
2022-09-12T17:34:36.085Z,999.90
2022-09-12T17:37:04.632Z,999.90
2022-09-12T17:39:32.649Z,999.90
2022-09-12T17:42:00.664Z,999.90
2022-09-12T17:44:29.708Z,999.90
2022-09-12T17:46:57.776Z,999.90
2022-09-12T17:49:27.409Z,999.90
2022-09-12T17:51:56.058Z,999.90
2022-09-12T17:54:24.472Z,999.90
2022-09-12T17:56:52.517Z,999.90
2022-09-12T17:59:24.314Z,999.90
2022-09-12T18:02:10.162Z,999.90
2022-09-12T18:04:40.580Z,999.90
2022-09-12T18:07:09.230Z,999.90
2022-09-12T18:09:37.336Z,999.90
2022-09-12T18:12:05.621Z,999.90
2022-09-12T18:14:34.862Z,999.90
2022-09-12T18:17:02.976Z,999.90
2022-09-12T18:19:31.917Z,999.90
2022-09-12T18:22:01.349Z,999.90
2022-09-12T18:24:29.718Z,999.90
2022-09-12T18:26:57.696Z,999.90
2022-09-12T18:29:27.927Z,999.90
2022-09-12T18:31:56.611Z,999.90
2022-09-12T18:34:24.752Z,999.90
2022-09-12T18:36:54.806Z,999.90
2022-09-12T18:39:27.638Z,999.90
2022-09-12T18:41:56.606Z,999.90
2022-09-12T18:44:24.679Z,999.90
2022-09-12T18:46:52.817Z,999.90
2022-09-12T18:49:21.195Z,999.90
2022-09-12T18:51:49.413Z,999.90
2022-09-12T18:54:17.893Z,999.90
2022-09-12T18:56:47.706Z,999.90
2022-09-12T18:59:16.010Z,999.90
2022-09-12T19:01:44.444Z,999.90
2022-09-12T19:04:14.352Z,999.90
2022-09-12T19:06:44.401Z,999.90
2022-09-12T19:09:13.956Z,999.90
2022-09-12T19:11:48.627Z,999.90
2022-09-12T19:14:19.392Z,999.90
2022-09-12T19:16:47.640Z,999.90
2022-09-12T19:19:15.692Z,999.90
2022-09-12T19:21:44.276Z,999.90
2022-09-12T19:24:14.298Z,999.90
2022-09-12T19:26:42.551Z,999.90
2022-09-12T19:29:13.849Z,999.90
2022-09-12T19:31:43.452Z,999.90
2022-09-12T19:34:13.302Z,999.90
2022-09-12T19:36:46.799Z,999.90
2022-09-12T19:39:16.456Z,999.90
2022-09-12T19:41:45.003Z,999.90
2022-09-12T19:44:13.324Z,999.90
2022-09-12T19:46:42.974Z,999.90
2022-09-12T19:49:12.648Z,999.90
2022-09-12T19:51:41.147Z,999.90
2022-09-12T19:54:09.476Z,999.90
2022-09-12T19:56:37.725Z,999.90
2022-09-12T19:59:05.927Z,999.90
2022-09-12T20:01:36.787Z,999.90
2022-09-12T20:04:06.787Z,999.90
2022-09-12T20:06:35.051Z,999.90
2022-09-12T20:09:03.290Z,999.90
2022-09-12T20:11:31.604Z,999.90
2022-09-12T20:14:00.184Z,999.90
2022-09-12T20:16:37.484Z,999.90
2022-09-12T20:19:25.682Z,999.90
2022-09-12T20:22:06.484Z,999.90
2022-09-12T20:24:49.693Z,999.90
2022-09-12T20:27:21.750Z,999.90
2022-09-12T20:29:54.512Z,999.90
2022-09-12T20:32:23.755Z,999.90
2022-09-12T20:35:06.056Z,999.90
2022-09-12T20:37:36.397Z,999.90
2022-09-12T20:40:14.373Z,999.90
2022-09-12T20:42:59.024Z,999.90
2022-09-12T20:45:33.845Z,999.90
2022-09-12T20:48:10.839Z,999.90
2022-09-12T20:50:46.579Z,999.90
2022-09-12T20:53:16.528Z,999.90
2022-09-12T20:55:53.683Z,999.90
2022-09-12T20:58:24.705Z,999.90
2022-09-12T21:00:55.817Z,999.90
2022-09-12T21:03:34.488Z,999.90
2022-09-12T21:06:06.193Z,999.90
2022-09-12T21:08:42.444Z,999.90
2022-09-12T21:11:18.041Z,999.90
2022-09-12T21:13:53.166Z,999.90
2022-09-12T21:16:29.192Z,999.90
2022-09-12T21:19:06.009Z,999.90
2022-09-12T21:21:38.916Z,999.90
2022-09-12T21:24:29.287Z,999.90
2022-09-12T21:27:04.386Z,999.90
2022-09-12T21:29:35.143Z,999.90
2022-09-12T21:32:13.434Z,999.90
2022-09-12T21:34:49.050Z,999.90
2022-09-12T21:37:21.300Z,999.90
2022-09-12T21:39:53.127Z,999.90
2022-09-12T21:42:27.113Z,999.90
2022-09-12T21:45:03.502Z,999.90
2022-09-12T21:47:44.078Z,999.90
2022-09-12T21:50:17.776Z,999.90
2022-09-12T21:52:50.541Z,999.90
2022-09-12T21:55:27.420Z,999.90
2022-09-12T21:57:56.636Z,999.90
2022-09-12T22:00:32.550Z,999.90
2022-09-12T22:03:01.943Z,999.90
2022-09-12T22:05:31.905Z,999.90
2022-09-12T22:08:04.070Z,999.90
2022-09-12T22:10:35.339Z,999.90
2022-09-12T22:13:04.346Z,999.90
2022-09-12T22:15:40.480Z,999.90
2022-09-12T22:18:12.830Z,999.90
2022-09-12T22:20:52.366Z,999.90
2022-09-12T22:23:42.632Z,999.90
2022-09-12T22:26:14.214Z,999.90
2022-09-12T22:28:43.385Z,999.90
2022-09-12T22:31:16.685Z,999.90
2022-09-12T22:33:53.650Z,999.90
2022-09-12T22:36:39.317Z,999.90
2022-09-12T22:39:20.418Z,999.90
2022-09-12T22:41:49.906Z,999.90
2022-09-12T22:44:18.738Z,999.90
2022-09-12T22:46:50.652Z,999.90
2022-09-12T22:49:25.915Z,999.90
2022-09-12T22:51:54.384Z,999.90
2022-09-12T22:54:30.447Z,999.90
2022-09-12T22:57:08.296Z,999.90
2022-09-12T22:59:44.797Z,999.90
2022-09-12T23:02:13.187Z,999.90
2022-09-12T23:04:45.665Z,999.90
2022-09-12T23:07:19.048Z,999.90
2022-09-12T23:09:55.661Z,999.90
2022-09-12T23:12:26.461Z,999.90
2022-09-12T23:14:57.207Z,999.90
2022-09-12T23:17:35.089Z,999.90
2022-09-12T23:20:04.235Z,999.90
2022-09-12T23:22:35.345Z,999.90
2022-09-12T23:25:07.284Z,999.90
2022-09-12T23:27:36.273Z,999.90
2022-09-12T23:30:14.571Z,999.90
2022-09-12T23:32:50.556Z,999.90
2022-09-12T23:35:29.886Z,999.90
2022-09-12T23:38:14.766Z,999.90
2022-09-12T23:40:53.665Z,999.90
2022-09-12T23:43:28.214Z,999.90
2022-09-12T23:46:04.264Z,999.90
2022-09-12T23:48:38.558Z,999.90
2022-09-12T23:51:24.082Z,999.90
2022-09-12T23:53:58.859Z,999.90
2022-09-12T23:56:33.962Z,999.90
2022-09-12T23:59:13.786Z,999.90
